Time;durP1;ratioP1;P1;durP2;ratioP2;P2;SDS_P1;SDS_P2;PMS_P1;PMS_P2;Temp;Humidity;BMP_temperature;BMP_pressure;BME280_temperature;BME280_humidity;BME280_pressure;Samples;Min_cycle;Max_cycle;Signal;HPM_P1;HPM_P2
2023/01/08 00:02:18;;;;;;;1.00;0.70;;;;;;;8.86;80.02;100202.56;9905767;29;20059;-85
2023/01/08 00:07:19;;;;;;;2.38;1.20;;;;;;;8.87;80.03;100191.22;9896677;29;20539;-84
2023/01/08 00:12:21;;;;;;;0.30;0.30;;;;;;;8.89;80.24;100201.69;9895437;29;20235;-86
2023/01/08 00:17:22;;;;;;;2.50;1.35;;;;;;;8.90;80.42;100190.41;9918708;29;20046;-85
2023/01/08 00:22:24;;;;;;;3.15;0.85;;;;;;;8.85;80.44;100185.13;9902354;29;20500;-87
2023/01/08 00:27:26;;;;;;;0.98;0.85;;;;;;;8.86;80.95;100179.06;9888966;29;20063;-86
2023/01/08 00:32:27;;;;;;;1.13;0.65;;;;;;;8.88;81.10;100176.47;9910304;29;20082;-85
2023/01/08 00:37:30;;;;;;;1.60;0.77;;;;;;;8.91;81.41;100174.75;9896104;29;20055;-86
2023/01/08 00:42:31;;;;;;;2.17;1.23;;;;;;;8.92;81.59;100167.81;9895932;29;20066;-86
2023/01/08 00:47:33;;;;;;;2.15;1.10;;;;;;;8.87;82.21;100162.50;9893122;29;20448;-85
2023/01/08 00:52:34;;;;;;;1.20;0.88;;;;;;;8.89;82.30;100167.75;9893276;29;20063;-84
2023/01/08 00:57:37;;;;;;;2.03;1.38;;;;;;;8.87;82.87;100154.69;9899867;29;20051;-85
2023/01/08 01:02:40;;;;;;;1.60;0.95;;;;;;;8.93;83.00;100154.78;9894540;29;20063;-84
2023/01/08 01:07:43;;;;;;;1.73;0.95;;;;;;;8.97;83.36;100150.47;9905963;29;20057;-83
2023/01/08 01:12:44;;;;;;;1.73;0.95;;;;;;;8.98;83.36;100142.66;9908755;29;20055;-85
2023/01/08 01:17:49;;;;;;;1.58;0.88;;;;;;;9.04;83.47;100147.09;9900267;29;20410;-84
2023/01/08 01:22:51;;;;;;;1.65;0.70;;;;;;;9.06;83.76;100155.81;9901134;29;20059;-84
2023/01/08 01:27:53;;;;;;;2.60;1.23;;;;;;;9.01;83.79;100140.09;9893419;29;20203;-85
2023/01/08 01:32:55;;;;;;;1.15;0.90;;;;;;;9.05;84.14;100121.84;9894289;29;20055;-84
2023/01/08 01:37:56;;;;;;;1.85;0.95;;;;;;;9.06;84.23;100123.59;9895455;29;20128;-85
2023/01/08 01:42:58;;;;;;;3.35;1.25;;;;;;;9.03;84.17;100138.34;9897538;29;20517;-85
2023/01/08 01:48:05;;;;;;;1.75;0.90;;;;;;;9.03;84.52;100135.75;9898559;29;20068;-85
2023/01/08 01:53:14;;;;;;;2.17;1.17;;;;;;;9.06;84.54;100134.06;9900615;29;20489;-85
2023/01/08 01:58:23;;;;;;;0.95;0.80;;;;;;;9.06;84.57;100118.38;9899135;29;20047;-84
2023/01/08 02:03:29;;;;;;;0.77;0.77;;;;;;;8.96;84.78;100115.66;9906621;29;20047;-85
2023/01/08 02:08:52;;;;;;;2.10;0.82;;;;;;;8.91;85.05;100103.41;9900009;29;20051;-86
2023/01/08 02:14:34;;;;;;;0.90;0.65;;;;;;;8.88;85.17;100111.19;9885734;29;20061;-84
2023/01/08 02:19:48;;;;;;;3.63;1.48;;;;;;;8.84;85.32;100108.53;9891579;29;20068;-85
2023/01/08 02:25:05;;;;;;;1.73;1.00;;;;;;;8.89;85.40;100115.53;9907133;29;20047;-86
2023/01/08 02:30:08;;;;;;;2.30;1.05;;;;;;;8.90;85.39;100099.03;9898477;29;20073;-86
2023/01/08 02:35:11;;;;;;;3.67;1.30;;;;;;;8.81;85.41;100095.44;9889892;29;20138;-86
2023/01/08 02:40:23;;;;;;;1.30;0.82;;;;;;;8.78;85.76;100091.91;9890988;29;20078;-87
2023/01/08 02:45:25;;;;;;;1.25;0.80;;;;;;;8.80;85.93;100100.66;9904922;29;20059;-85
2023/01/08 02:50:42;;;;;;;0.90;0.70;;;;;;;8.82;86.01;100088.47;9899260;29;20316;-84
2023/01/08 02:56:12;;;;;;;1.90;1.23;;;;;;;8.79;86.12;100099.75;9897093;29;20521;-86
2023/01/08 03:01:16;;;;;;;2.58;1.52;;;;;;;8.83;86.30;100100.69;9892945;29;20059;-86
2023/01/08 03:06:20;;;;;;;2.55;0.98;;;;;;;8.80;86.48;100092.81;9890920;29;20513;-86
2023/01/08 03:11:27;;;;;;;1.90;0.90;;;;;;;8.82;86.47;100106.75;9889189;29;20501;-86
2023/01/08 03:16:35;;;;;;;1.95;0.98;;;;;;;8.82;86.52;100088.47;9897018;29;20055;-85
2023/01/08 03:21:39;;;;;;;3.20;1.40;;;;;;;8.78;86.33;100076.25;9905633;29;20060;-86
2023/01/08 03:26:43;;;;;;;1.10;0.93;;;;;;;8.78;86.74;100102.34;9896909;29;20497;-86
2023/01/08 03:31:47;;;;;;;0.93;0.82;;;;;;;8.83;86.77;100092.84;9904784;29;20047;-85
2023/01/08 03:36:52;;;;;;;1.63;1.05;;;;;;;8.87;86.60;100091.16;9898092;29;20065;-85
2023/01/08 03:42:11;;;;;;;1.23;1.00;;;;;;;8.90;86.39;100097.28;9889971;29;20055;-85
2023/01/08 03:47:14;;;;;;;2.28;1.20;;;;;;;8.88;86.47;100088.56;9897442;29;20059;-85
2023/01/08 03:52:26;;;;;;;2.08;1.00;;;;;;;8.92;86.39;100081.66;9888600;29;20406;-85
2023/01/08 03:57:28;;;;;;;2.67;0.90;;;;;;;8.91;86.56;100078.16;9896701;29;20065;-85
2023/01/08 04:02:29;;;;;;;2.03;0.98;;;;;;;8.89;86.68;100079.88;9894238;29;20067;-86
2023/01/08 04:07:31;;;;;;;1.08;0.77;;;;;;;8.91;86.58;100075.53;9897587;29;20062;-86
2023/01/08 04:12:33;;;;;;;1.27;0.90;;;;;;;8.97;86.49;100065.16;9912000;29;20538;-86
2023/01/08 04:17:35;;;;;;;1.65;0.70;;;;;;;8.99;86.36;100065.19;9908757;29;20143;-86
2023/01/08 04:22:36;;;;;;;1.20;0.60;;;;;;;8.97;86.49;100077.34;9903613;29;20073;-86
2023/01/08 04:27:38;;;;;;;1.38;0.68;;;;;;;8.96;86.59;100055.59;9889810;29;20104;-87
2023/01/08 04:32:40;;;;;;;1.38;0.90;;;;;;;8.95;86.25;100048.63;9884540;29;20103;-85
2023/01/08 04:37:41;;;;;;;0.73;0.50;;;;;;;8.96;86.34;100044.25;9894256;29;20091;-84
2023/01/08 04:42:43;;;;;;;2.05;0.90;;;;;;;8.87;86.36;100060.69;9895671;29;20424;-83
2023/01/08 04:47:44;;;;;;;0.73;0.40;;;;;;;8.82;86.52;100057.16;9903424;29;20051;-85
2023/01/08 04:52:47;;;;;;;1.38;0.93;;;;;;;8.79;86.46;100039.72;9896187;29;20055;-84
2023/01/08 04:57:49;;;;;;;2.13;1.20;;;;;;;8.83;86.51;100040.66;9902818;29;20520;-86
2023/01/08 05:02:51;;;;;;;1.27;0.98;;;;;;;8.84;86.63;100037.16;9897580;29;20063;-85
2023/01/08 05:07:53;;;;;;;1.38;0.85;;;;;;;8.76;86.68;100036.19;9907900;29;20400;-83
2023/01/08 05:12:58;;;;;;;1.20;0.65;;;;;;;8.72;86.88;100029.19;9902482;29;20063;-85
2023/01/08 05:18:02;;;;;;;0.82;0.63;;;;;;;8.66;86.91;100023.03;9911550;29;20055;-86
2023/01/08 05:23:04;;;;;;;2.25;1.30;;;;;;;8.67;86.98;100022.16;9910583;29;20359;-85
2023/01/08 05:28:06;;;;;;;0.60;0.57;;;;;;;8.64;87.18;100013.44;9904873;29;20047;-85
2023/01/08 05:33:07;;;;;;;1.98;1.23;;;;;;;8.60;87.29;100017.75;9892694;29;20112;-85
2023/01/08 05:38:09;;;;;;;2.40;0.95;;;;;;;8.60;87.16;100022.06;9902081;29;20053;-86
2023/01/08 05:43:11;;;;;;;0.95;0.60;;;;;;;8.56;87.28;100013.34;9902257;29;20137;-85
2023/01/08 05:48:12;;;;;;;1.60;0.95;;;;;;;8.60;87.45;100009.91;9895624;29;20055;-85
2023/01/08 05:53:14;;;;;;;1.52;0.90;;;;;;;8.57;87.48;100009.88;9892127;29;20222;-85
2023/01/08 05:58:19;;;;;;;1.23;0.80;;;;;;;8.60;87.38;100009.91;9891910;29;20062;-85
2023/01/08 06:03:22;;;;;;;1.70;0.85;;;;;;;8.62;87.37;99997.75;9897009;29;20054;-85
2023/01/08 06:08:23;;;;;;;1.30;0.80;;;;;;;8.60;87.66;99993.38;9891411;29;20153;-85
2023/01/08 06:13:25;;;;;;;1.63;0.80;;;;;;;8.54;87.94;99986.34;9902948;29;20047;-85
2023/01/08 06:18:28;;;;;;;2.65;1.10;;;;;;;8.49;88.29;99986.28;9913386;29;21016;-86
2023/01/08 06:23:31;;;;;;;2.38;0.90;;;;;;;8.44;88.90;99987.09;9903727;29;20059;-85
2023/01/08 06:28:33;;;;;;;1.75;0.85;;;;;;;8.32;89.23;99993.00;9890765;29;20055;-84
2023/01/08 06:33:35;;;;;;;1.65;0.75;;;;;;;8.29;89.67;99986.00;9890152;29;20142;-85
2023/01/08 06:38:37;;;;;;;1.58;0.82;;;;;;;8.25;90.19;99997.22;9898338;29;20075;-87
2023/01/08 06:44:05;;;;;;;1.80;0.93;;;;;;;8.18;90.68;99995.41;9888599;29;20051;-88
2023/01/08 06:49:45;;;;;;;1.38;0.73;;;;;;;8.05;91.42;100004.78;9881683;29;20047;-85
2023/01/08 06:54:46;;;;;;;4.72;0.88;;;;;;;7.97;91.96;99998.56;9896807;29;20478;-88
2023/01/08 07:00:01;;;;;;;1.52;0.85;;;;;;;7.88;92.53;100001.03;9903909;29;20108;-89
2023/01/08 07:06:20;;;;;;;0.47;0.32;;;;;;;7.86;93.05;99998.41;9882524;29;20536;-90
2023/01/08 07:24:56;;;;;;;0.63;0.43;;;;;;;7.74;93.75;100003.41;9876965;29;20113;-88
2023/01/08 07:31:14;;;;;;;;;;;;;;;;;;;;;
2023/01/08 07:36:58;;;;;;;2.15;0.80;;;;;;;7.62;93.89;99991.06;9867569;29;20429;-88
2023/01/08 07:42:43;;;;;;;1.45;0.50;;;;;;;7.57;93.71;99996.22;9868593;29;20052;-89
2023/01/08 07:48:16;;;;;;;;;;;;;;;;;;;;;
2023/01/08 07:53:38;;;;;;;0.75;0.60;;;;;;;7.53;93.45;100009.16;9862848;29;20059;-88
2023/01/08 07:59:14;;;;;;;0.63;0.52;;;;;;;7.49;93.37;100012.56;9862295;29;20062;-88
2023/01/08 08:04:34;;;;;;;0.30;0.30;;;;;;;7.53;93.53;100004.81;9880629;29;20059;-88
2023/01/08 08:10:02;;;;;;;1.63;0.85;;;;;;;7.59;93.44;100007.53;9876035;29;20239;-88
2023/01/08 08:15:13;;;;;;;1.15;0.60;;;;;;;7.60;93.38;100000.59;9858322;29;20102;-87
2023/01/08 08:20:26;;;;;;;0.35;0.35;;;;;;;7.63;93.33;99986.72;9873879;29;20412;-87
2023/01/08 08:25:32;;;;;;;0.93;0.40;;;;;;;7.59;92.95;100002.31;9873006;29;20540;-87
2023/01/08 08:30:37;;;;;;;0.32;0.32;;;;;;;7.57;92.96;99996.22;9872836;29;20105;-87
2023/01/08 08:35:50;;;;;;;1.45;0.63;;;;;;;7.60;92.72;99995.38;9880055;29;20166;-87
2023/01/08 08:40:52;;;;;;;0.60;0.43;;;;;;;7.65;92.52;99996.31;9894595;29;20117;-88
2023/01/08 08:45:58;;;;;;;0.25;0.22;;;;;;;7.66;92.45;99989.41;9894524;29;20056;-87
2023/01/08 08:51:05;;;;;;;0.60;0.43;;;;;;;7.66;92.52;99986.81;9879029;29;20059;-87
2023/01/08 08:56:07;;;;;;;2.15;0.50;;;;;;;7.65;92.22;99972.00;9879658;29;20125;-86
2023/01/08 09:01:12;;;;;;;0.38;0.38;;;;;;;7.68;91.90;99961.63;9867575;29;20480;-87
2023/01/08 09:06:15;;;;;;;0.20;0.20;;;;;;;7.69;91.70;99976.44;9871868;29;20059;-86
2023/01/08 09:11:19;;;;;;;0.20;0.20;;;;;;;7.68;91.69;99978.13;9871919;29;20044;-87
2023/01/08 09:16:21;;;;;;;0.80;0.30;;;;;;;7.65;91.60;99975.47;9871462;29;20067;-87
2023/01/08 09:21:23;;;;;;;0.13;0.13;;;;;;;7.67;91.23;99980.72;9893262;29;20056;-87
2023/01/08 09:26:27;;;;;;;0.40;0.40;;;;;;;7.72;91.10;99976.47;9872702;29;20121;-87
2023/01/08 09:31:29;;;;;;;0.50;0.22;;;;;;;7.71;90.99;99972.97;9863059;29;20402;-87
2023/01/08 09:36:31;;;;;;;0.65;0.65;;;;;;;7.66;91.10;99979.00;9862400;29;20064;-87
2023/01/08 09:41:38;;;;;;;3.63;0.93;;;;;;;7.68;90.90;99972.06;9870061;29;20139;-87
2023/01/08 09:46:45;;;;;;;0.60;0.43;;;;;;;7.83;91.12;99972.28;9876832;29;20060;-87
2023/01/08 09:51:49;;;;;;;1.30;0.80;;;;;;;8.04;91.08;99969.13;9875716;29;20124;-87
2023/01/08 09:56:51;;;;;;;0.73;0.47;;;;;;;8.28;90.61;99968.56;9870525;29;20056;-86
2023/01/08 10:01:53;;;;;;;0.50;0.50;;;;;;;8.54;90.30;99975.91;9870019;29;20134;-86
2023/01/08 10:07:01;;;;;;;1.88;0.55;;;;;;;8.66;89.59;99969.94;9869941;29;20146;-86
2023/01/08 10:12:04;;;;;;;0.22;0.22;;;;;;;8.71;88.79;99975.22;9875645;29;20147;-87
2023/01/08 10:17:30;;;;;;;0.28;0.28;;;;;;;8.82;88.04;99965.78;9876331;29;20086;-86
2023/01/08 10:22:32;;;;;;;0.47;0.43;;;;;;;8.91;87.13;99958.06;9854289;29;20436;-86
2023/01/08 10:27:49;;;;;;;0.80;0.70;;;;;;;9.10;86.61;99953.03;9880615;29;20081;-86
2023/01/08 10:32:53;;;;;;;0.80;0.35;;;;;;;9.15;85.48;99961.78;9870053;29;20051;-86
2023/01/08 10:37:55;;;;;;;0.35;0.35;;;;;;;9.17;84.73;99955.72;9862697;29;20117;-86
2023/01/08 10:43:19;;;;;;;1.08;0.50;;;;;;;9.28;84.23;99937.53;9874110;29;20055;-87
2023/01/08 10:48:20;;;;;;;0.30;0.30;;;;;;;9.27;83.25;99940.97;9868361;29;20139;-86
2023/01/08 10:53:26;;;;;;;1.42;0.55;;;;;;;9.32;82.54;99926.25;9873586;29;20047;-86
2023/01/08 10:58:38;;;;;;;0.30;0.30;;;;;;;9.29;81.60;99923.59;9874723;29;20070;-86
2023/01/08 11:03:41;;;;;;;1.60;0.60;;;;;;;9.36;81.56;99920.16;9879404;29;20517;-86
2023/01/08 11:08:54;;;;;;;0.30;0.13;;;;;;;9.34;81.01;99918.41;9856190;29;20063;-87
2023/01/08 11:14:11;;;;;;;2.72;0.30;;;;;;;9.38;80.24;99920.16;9854326;29;20135;-86
2023/01/08 11:19:27;;;;;;;1.13;0.38;;;;;;;9.47;79.62;99915.03;9854324;29;20059;-86
2023/01/08 11:24:35;;;;;;;0.55;0.38;;;;;;;9.52;79.10;99917.69;9854271;29;20102;-86
2023/01/08 11:29:43;;;;;;;2.00;0.25;;;;;;;9.49;78.60;99909.81;9878120;29;20051;-85
2023/01/08 11:35:11;;;;;;;2.53;0.50;;;;;;;9.54;78.02;99900.25;9855491;29;20182;-86
2023/01/08 11:40:14;;;;;;;0.28;0.22;;;;;;;9.51;77.32;99889.78;9865999;29;20056;-86
2023/01/08 11:45:45;;;;;;;0.38;0.30;;;;;;;9.55;77.14;99894.19;9882438;29;20146;-86
2023/01/08 11:51:04;;;;;;;0.13;0.13;;;;;;;9.54;76.70;99879.34;9861531;29;20120;-85
2023/01/08 11:56:26;;;;;;;0.30;0.15;;;;;;;9.44;76.16;99883.63;9867939;29;20142;-85
2023/01/08 12:01:46;;;;;;;0.90;0.40;;;;;;;9.53;76.20;99880.22;9871896;29;20082;-85
2023/01/08 12:06:57;;;;;;;0.70;0.50;;;;;;;9.57;75.58;99870.69;9853267;29;20063;-86
2023/01/08 12:12:16;;;;;;;0.43;0.30;;;;;;;9.45;74.57;99869.72;9873260;29;20055;-85
2023/01/08 12:17:27;;;;;;;0.52;0.10;;;;;;;9.50;74.59;99856.66;9852987;29;20067;-85
2023/01/08 12:22:48;;;;;;;0.20;0.20;;;;;;;9.52;74.41;99852.34;9879857;29;20052;-85
2023/01/08 12:28:14;;;;;;;0.95;0.40;;;;;;;9.33;74.39;99844.38;9867769;29;20052;-85
2023/01/08 12:33:57;;;;;;;0.98;0.47;;;;;;;9.18;74.48;99841.66;9867851;29;20052;-85
2023/01/08 12:39:09;;;;;;;2.00;0.40;;;;;;;9.20;74.32;99829.47;9866627;29;20067;-84
2023/01/08 12:44:11;;;;;;;0.50;0.43;;;;;;;9.24;74.25;99828.63;9873336;29;20519;-85
2023/01/08 12:49:20;;;;;;;3.40;1.08;;;;;;;9.15;74.17;99837.28;9859714;29;20291;-85
2023/01/08 12:54:33;;;;;;;1.00;0.82;;;;;;;9.01;74.09;99826.72;9870367;29;20067;-86
2023/01/08 12:59:49;;;;;;;0.25;0.20;;;;;;;8.89;74.56;99826.63;9866140;29;20044;-85
2023/01/08 13:04:51;;;;;;;0.10;0.05;;;;;;;8.83;74.88;99826.59;9880209;29;20051;-86
2023/01/08 13:09:54;;;;;;;0.95;0.32;;;;;;;8.76;75.19;99827.38;9871484;29;20150;-85
2023/01/08 13:14:56;;;;;;;4.85;0.57;;;;;;;8.69;75.28;99816.00;9870311;29;20428;-85
2023/01/08 13:20:04;;;;;;;0.35;0.30;;;;;;;8.64;75.92;99813.34;9863382;29;20055;-85
2023/01/08 13:25:27;;;;;;;0.57;0.20;;;;;;;8.71;76.22;99802.97;9864183;29;20065;-85
2023/01/08 13:30:41;;;;;;;1.23;0.40;;;;;;;8.87;76.49;99793.53;9876939;29;20055;-84
2023/01/08 13:35:43;;;;;;;1.75;0.52;;;;;;;8.95;76.72;99791.88;9864496;29;20059;-84
2023/01/08 13:40:45;;;;;;;1.00;0.57;;;;;;;8.93;76.60;99783.13;9869623;29;20039;-85
2023/01/08 13:45:56;;;;;;;2.30;0.50;;;;;;;8.91;76.96;99766.59;9878598;29;20059;-84
2023/01/08 13:50:58;;;;;;;0.55;0.32;;;;;;;8.88;77.24;99767.44;9893537;29;20109;-85
2023/01/08 13:56:05;;;;;;;2.65;0.90;;;;;;;8.91;77.16;99758.75;9863399;29;20134;-84
2023/01/08 14:01:09;;;;;;;0.25;0.22;;;;;;;8.90;77.19;99751.78;9864602;29;20051;-84
2023/01/08 14:06:11;;;;;;;0.28;0.28;;;;;;;8.90;77.62;99760.47;9878148;29;20060;-86
2023/01/08 14:11:12;;;;;;;0.60;0.20;;;;;;;8.89;77.70;99748.31;9900584;29;20059;-85
2023/01/08 14:16:16;;;;;;;1.95;0.70;;;;;;;8.88;78.03;99749.16;9864408;29;20473;-85
2023/01/08 14:21:22;;;;;;;7.40;1.20;;;;;;;8.79;78.47;99739.53;9878340;29;20056;-85
2023/01/08 14:26:35;;;;;;;0.85;0.50;;;;;;;8.78;78.92;99736.91;9900616;29;20083;-85
2023/01/08 14:31:36;;;;;;;4.75;0.47;;;;;;;8.78;79.46;99731.69;9907433;29;20083;-84
2023/01/08 14:36:40;;;;;;;2.75;0.60;;;;;;;8.72;79.53;99740.38;9876779;29;20505;-85
2023/01/08 14:47:02;;;;;;;;;;;;;;;8.57;80.56;99728.06;9871696;29;20446;-85
2023/01/08 14:52:04;;;;;;;2.17;1.23;;;;;;;8.48;81.21;99728.84;9868928;29;20624;-86
2023/01/08 14:57:05;;;;;;;1.20;0.98;;;;;;;8.42;81.61;99730.47;9863829;29;20063;-86
2023/01/08 15:02:24;;;;;;;2.85;1.30;;;;;;;8.19;82.61;99740.72;9874498;29;20138;-86
2023/01/08 15:07:26;;;;;;;2.33;0.73;;;;;;;7.97;83.67;99712.69;9876262;29;20059;-86
2023/01/08 15:12:31;;;;;;;3.30;1.02;;;;;;;7.92;85.07;99726.53;9860985;29;20240;-86
2023/01/08 15:17:32;;;;;;;4.15;1.38;;;;;;;7.81;85.67;99718.59;9866219;29;20146;-86
2023/01/08 15:22:35;;;;;;;2.33;0.80;;;;;;;7.74;86.55;99708.94;9859731;29;20613;-86
2023/01/08 15:27:38;;;;;;;0.95;0.40;;;;;;;7.74;87.34;99711.56;9870182;29;20534;-86
2023/01/08 15:32:40;;;;;;;0.68;0.50;;;;;;;7.71;87.76;99706.31;9857510;29;20044;-86
2023/01/08 15:37:41;;;;;;;3.05;0.57;;;;;;;7.66;88.12;99705.41;9867017;29;20536;-86
2023/01/08 15:48:05;;;;;;;1.25;0.50;;;;;;;7.50;89.02;99702.59;9860326;29;20062;-86
2023/01/08 15:53:14;;;;;;;1.30;0.77;;;;;;;7.43;89.59;99691.22;9896004;29;20052;-86
2023/01/08 15:58:16;;;;;;;1.83;0.60;;;;;;;7.35;89.91;99695.47;9867124;29;20246;-87
2023/01/08 16:03:19;;;;;;;2.10;1.10;;;;;;;7.30;90.24;99684.13;9881145;29;20088;-87
2023/01/08 16:08:21;;;;;;;0.63;0.35;;;;;;;7.27;90.42;99673.66;9861021;29;20056;-87
2023/01/08 16:13:24;;;;;;;0.70;0.52;;;;;;;7.29;90.94;99676.28;9873617;29;20089;-87
2023/01/08 16:18:29;;;;;;;1.75;0.82;;;;;;;7.30;91.03;99680.66;9873533;29;20449;-87
2023/01/08 16:23:35;;;;;;;2.20;1.67;;;;;;;7.31;91.52;99700.59;9865844;29;20056;-86
2023/01/08 16:28:38;;;;;;;2.47;1.55;;;;;;;7.26;91.60;99701.41;9859126;29;20055;-87
2023/01/08 16:33:40;;;;;;;1.48;0.70;;;;;;;7.22;91.67;99697.03;9875529;29;20463;-86
2023/01/08 16:38:42;;;;;;;0.40;0.40;;;;;;;7.15;91.85;99695.22;9877223;29;20136;-87
2023/01/08 16:43:44;;;;;;;7.00;1.33;;;;;;;7.03;91.99;99680.28;9887174;29;20074;-87
2023/01/08 16:48:47;;;;;;;0.90;0.70;;;;;;;6.95;92.04;99678.44;9872558;29;20125;-87
2023/01/08 17:06:03;;;;;;;0.80;0.40;;;;;;;6.72;92.17;99656.47;10855996;24;20413;-88
2023/01/08 17:11:13;;;;;;;0.52;0.50;;;;;;;6.70;92.15;99657.28;9917967;29;20059;-88
2023/01/08 17:16:22;;;;;;;0.47;0.28;;;;;;;6.62;92.10;99651.97;9913920;29;20127;-89
2023/01/08 17:21:38;;;;;;;0.30;0.30;;;;;;;6.57;92.18;99657.94;9913176;29;20051;-89
2023/01/08 17:26:44;;;;;;;0.32;0.32;;;;;;;6.45;92.01;99654.28;9916514;29;20148;-88
2023/01/08 17:31:47;;;;;;;5.43;0.93;;;;;;;6.42;92.08;99656.84;9935300;29;20108;-88
2023/01/08 17:36:52;;;;;;;1.02;0.50;;;;;;;6.34;91.98;99651.53;9938267;29;20059;-87
2023/01/08 17:47:22;;;;;;;1.08;0.57;;;;;;;6.18;92.26;99655.63;9931893;29;20069;-86
2023/01/08 17:52:25;;;;;;;2.65;0.90;;;;;;;6.09;92.21;99649.38;9923275;29;20133;-89
2023/01/08 17:57:30;;;;;;;0.70;0.50;;;;;;;5.92;92.46;99646.47;9930240;29;20111;-88
2023/01/08 18:02:32;;;;;;;1.85;1.23;;;;;;;5.77;92.51;99662.66;9915656;29;20066;-87
2023/01/08 18:07:35;;;;;;;2.67;1.02;;;;;;;5.74;92.56;99658.25;9931094;29;20425;-86
2023/01/08 18:12:39;;;;;;;1.50;0.85;;;;;;;5.70;92.48;99656.44;9930771;29;20059;-87
2023/01/08 18:17:45;;;;;;;0.20;0.20;;;;;;;5.66;93.05;99645.13;9930129;29;20185;-86
2023/01/08 18:22:50;;;;;;;0.70;0.57;;;;;;;5.58;93.11;99648.44;9928988;29;20162;-87
2023/01/08 18:27:53;;;;;;;0.90;0.60;;;;;;;5.49;93.15;99650.03;9929517;29;20077;-86
2023/01/08 18:32:56;;;;;;;1.70;0.88;;;;;;;5.36;92.97;99647.13;9926055;29;20062;-88
2023/01/08 18:38:14;;;;;;;2.38;1.20;;;;;;;5.26;93.34;99627.91;9934642;29;20197;-89
2023/01/08 18:43:35;;;;;;;0.80;0.77;;;;;;;5.17;93.06;99628.59;9925054;29;20064;-87
2023/01/08 18:49:02;;;;;;;0.47;0.30;;;;;;;5.05;93.13;99634.41;9911415;29;20142;-87
2023/01/08 18:54:16;;;;;;;0.40;0.40;;;;;;;4.98;93.14;99622.16;9926330;29;20066;-87
2023/01/08 18:59:35;;;;;;;0.70;0.60;;;;;;;4.86;93.29;99625.34;9926533;29;20058;-89
2023/01/08 19:04:56;;;;;;;1.00;0.82;;;;;;;4.81;93.46;99620.94;9927386;29;20055;-87
2023/01/08 19:10:12;;;;;;;0.95;0.82;;;;;;;4.73;93.40;99611.25;9919464;29;20059;-88
2023/01/08 19:15:42;;;;;;;0.50;0.22;;;;;;;4.68;93.58;99602.47;9911673;29;20160;-87
2023/01/08 19:20:59;;;;;;;0.65;0.52;;;;;;;4.66;93.61;99587.75;9895631;29;20406;-89
2023/01/08 19:26:13;;;;;;;0.35;0.30;;;;;;;4.60;93.88;99581.56;9923966;29;20062;-88
2023/01/08 19:31:23;;;;;;;0.20;0.20;;;;;;;4.60;93.93;99579.00;9920062;29;20057;-88
2023/01/08 19:36:40;;;;;;;2.40;0.73;;;;;;;4.54;94.09;99570.22;9930616;29;20050;-87
2023/01/08 19:47:30;;;;;;;0.73;0.65;;;;;;;4.41;94.22;99562.16;9918498;29;20540;-87
2023/01/08 19:52:37;;;;;;;0.32;0.30;;;;;;;4.37;94.42;99559.47;9926756;29;20057;-87
2023/01/08 19:57:53;;;;;;;0.10;0.10;;;;;;;4.34;94.42;99560.28;9928403;29;20043;-87
2023/01/08 20:03:02;;;;;;;0.35;0.30;;;;;;;4.30;94.62;99552.41;9929651;29;20055;-87
2023/01/08 20:08:19;;;;;;;0.38;0.30;;;;;;;4.27;94.55;99545.44;9934889;29;20504;-87
2023/01/08 20:13:30;;;;;;;0.35;0.35;;;;;;;4.23;94.71;99535.81;9931567;29;20054;-87
2023/01/08 20:18:57;;;;;;;0.20;0.20;;;;;;;4.27;94.84;99523.84;9922063;29;20237;-87
2023/01/08 20:24:13;;;;;;;2.22;0.57;;;;;;;4.22;94.95;99523.72;9933595;29;20082;-87
2023/01/08 20:29:28;;;;;;;0.60;0.50;;;;;;;4.25;95.06;99513.44;9931688;29;20068;-88
2023/01/08 20:34:38;;;;;;;0.93;0.60;;;;;;;4.25;95.21;99511.69;9916537;29;20111;-87
2023/01/08 20:39:42;;;;;;;1.00;0.80;;;;;;;4.27;95.15;99495.31;9927595;29;20054;-87
2023/01/08 20:44:46;;;;;;;0.20;0.20;;;;;;;4.22;95.41;99493.50;9925771;29;20054;-86
2023/01/08 20:49:49;;;;;;;0.50;0.50;;;;;;;4.19;95.46;99484.78;9928041;29;20409;-85
2023/01/08 20:54:54;;;;;;;0.13;0.13;;;;;;;4.16;95.48;99466.56;9921874;29;20054;-87
2023/01/08 21:00:08;;;;;;;0.28;0.25;;;;;;;4.15;95.60;99467.44;9933210;29;20482;-87
2023/01/08 21:05:12;;;;;;;0.10;0.10;;;;;;;4.11;95.52;99468.19;9926639;29;20058;-87
2023/01/08 21:10:25;;;;;;;1.02;0.70;;;;;;;4.03;95.70;99471.47;9931470;29;20061;-87
2023/01/08 21:15:37;;;;;;;0.32;0.32;;;;;;;4.02;95.65;99468.84;9930660;29;20516;-88
2023/01/08 21:20:43;;;;;;;0.30;0.30;;;;;;;4.00;95.65;99460.19;9910122;29;20066;-87
2023/01/08 21:26:12;;;;;;;0.70;0.70;;;;;;;3.96;95.97;99456.63;9931138;29;20055;-86
2023/01/08 21:31:25;;;;;;;0.13;0.13;;;;;;;3.96;95.95;99448.88;9931753;29;20047;-87
2023/01/08 21:36:34;;;;;;;0.80;0.47;;;;;;;3.94;96.08;99445.38;9932669;29;20112;-87
2023/01/08 21:47:17;;;;;;;1.27;0.43;;;;;;;3.97;96.04;99404.00;9929500;29;20281;-87
2023/01/08 21:57:58;;;;;;;0.40;0.40;;;;;;;4.05;96.41;99401.56;9935173;29;20065;-87
2023/01/08 22:03:21;;;;;;;;;;;;;;;;;;;;;
2023/01/08 22:08:35;;;;;;;0.20;0.20;;;;;;;4.06;96.19;99396.44;9929550;29;20071;-87
2023/01/08 22:14:09;;;;;;;1.88;0.90;;;;;;;4.11;96.25;99385.28;9934562;29;20146;-87
2023/01/08 22:19:39;;;;;;;1.05;0.60;;;;;;;4.11;96.34;99374.94;9944126;29;20205;-87
2023/01/08 22:24:51;;;;;;;0.70;0.38;;;;;;;4.13;96.29;99368.06;9936851;29;20063;-87
2023/01/08 22:30:08;;;;;;;0.63;0.55;;;;;;;4.20;96.41;99359.56;9933780;29;20050;-87
2023/01/08 22:35:11;;;;;;;0.40;0.32;;;;;;;4.23;96.41;99354.44;9931031;29;20058;-87
2023/01/08 22:40:43;;;;;;;0.30;0.22;;;;;;;4.23;96.37;99341.50;9917182;29;20717;-87
2023/01/08 22:45:58;;;;;;;0.38;0.38;;;;;;;4.26;96.32;99333.78;9906610;29;20483;-88
2023/01/08 22:51:06;;;;;;;0.15;0.13;;;;;;;4.30;96.24;99327.81;9927557;29;20078;-87
2023/01/08 22:56:29;;;;;;;0.40;0.40;;;;;;;4.32;96.28;99327.84;9927514;29;20404;-86
2023/01/08 23:01:36;;;;;;;0.77;0.40;;;;;;;4.31;96.22;99326.09;9926676;29;20082;-86
2023/01/08 23:06:45;;;;;;;0.20;0.20;;;;;;;4.32;95.93;99328.69;9926242;29;20051;-88
2023/01/08 23:12:00;;;;;;;0.45;0.10;;;;;;;4.27;95.92;99313.94;9936320;29;20488;-90
2023/01/08 23:17:07;;;;;;;0.43;0.28;;;;;;;4.26;95.74;99297.50;9926844;29;20055;-88
2023/01/08 23:22:23;;;;;;;;;;;;;;;;;;;;;
2023/01/08 23:27:53;;;;;;;1.02;0.63;;;;;;;4.30;95.78;99288.94;9927613;29;20063;-87
2023/01/08 23:33:15;;;;;;;0.10;0.10;;;;;;;4.31;95.71;99288.09;9921430;29;20070;-87
2023/01/08 23:38:26;;;;;;;0.50;0.40;;;;;;;4.27;95.65;99288.88;9926590;29;20077;-88
2023/01/08 23:43:38;;;;;;;0.10;0.10;;;;;;;4.28;95.68;99280.28;9926955;29;20046;-88
2023/01/08 23:48:50;;;;;;;0.43;0.43;;;;;;;4.30;95.70;99272.53;9918222;29;20261;-89
2023/01/08 23:54:21;;;;;;;0.22;0.17;;;;;;;4.30;95.63;99269.94;9923558;29;20564;-88
2023/01/08 23:59:41;;;;;;;0.50;0.50;;;;;;;4.31;95.54;99261.28;9923365;29;20134;-87
